createdAt,value
2018-10-19T00:06:35.376Z,4.8
2018-10-19T00:21:38.502Z,3.3
2018-10-19T00:36:49.049Z,4.1
2018-10-19T00:51:55.550Z,3.4
2018-10-19T01:07:08.988Z,3.1
2018-10-19T01:21:51.189Z,3.2
2018-10-19T01:36:47.314Z,2.9
2018-10-19T01:51:57.657Z,3.2
2018-10-19T02:07:16.145Z,3.4
2018-10-19T02:21:18.446Z,3.5
2018-10-19T02:36:20.560Z,2.7
2018-10-19T02:51:29.737Z,2.9
2018-10-19T03:06:47.414Z,3
2018-10-19T03:21:42.577Z,3
2018-10-19T03:36:40.854Z,2.1
2018-10-19T03:51:50.526Z,2.6
2018-10-19T04:06:47.081Z,2.3
2018-10-19T04:21:58.581Z,2.5
2018-10-19T04:37:06.039Z,2.5
2018-10-19T04:52:22.817Z,2.2
2018-10-19T05:06:33.330Z,2.1
2018-10-19T05:22:26.262Z,2
2018-10-19T05:37:23.252Z,2.4
2018-10-19T05:52:23.545Z,2.5
2018-10-19T06:07:28.158Z,3.5
2018-10-19T06:22:26.151Z,2.6
2018-10-19T06:37:20.292Z,3.1
2018-10-19T06:51:34.121Z,5.6
2018-10-19T07:06:52.445Z,5.9
2018-10-19T07:22:07.542Z,7.2
2018-10-19T07:37:14.592Z,6.2
2018-10-19T07:52:26.524Z,6.3
2018-10-19T08:07:26.212Z,5.4
2018-10-19T08:21:47.899Z,14.9
2018-10-19T08:37:32.347Z,20.8
2018-10-19T08:52:31.188Z,10.9
2018-10-19T09:07:17.586Z,7.4
2018-10-19T09:22:09.243Z,5
2018-10-19T09:37:11.304Z,5.3
2018-10-19T09:52:26.432Z,6.1
2018-10-19T10:06:51.714Z,6.7
2018-10-19T10:22:40.400Z,16.7
2018-10-19T10:37:01.503Z,23
2018-10-19T10:51:50.738Z,19.1
2018-10-19T11:06:59.818Z,15.6
2018-10-19T11:22:04.779Z,17.1
2018-10-19T11:29:26.641Z,17.1
2018-10-19T11:37:34.319Z,18.1
2018-10-19T11:52:15.511Z,11.7
2018-10-19T12:07:24.716Z,13.4
2018-10-19T12:22:24.377Z,11.7
2018-10-19T12:37:20.425Z,14.8
2018-10-19T12:52:21.366Z,11.8
2018-10-19T13:07:32.704Z,16.7
2018-10-19T13:21:59.615Z,13.4
2018-10-19T13:37:07.649Z,10.3
2018-10-19T13:52:21.164Z,7.1
2018-10-19T14:07:19.690Z,14.9
2018-10-19T14:22:46.863Z,10.5
2018-10-19T14:36:54.673Z,7.8
2018-10-19T14:52:01.335Z,10.2
2018-10-19T15:07:11.090Z,8.8
2018-10-19T15:22:26.400Z,8.2
2018-10-19T15:37:55.008Z,9.7
2018-10-19T15:52:24.838Z,11.9
2018-10-19T16:07:00.819Z,15.4
2018-10-19T16:22:29.323Z,18.7
2018-10-19T16:37:09.942Z,14.7
2018-10-19T16:52:24.788Z,16.2
2018-10-19T17:07:41.968Z,16.3
2018-10-19T17:22:38.975Z,16
2018-10-19T17:37:01.294Z,12.6
2018-10-19T17:52:33.865Z,13.4
2018-10-19T18:08:02.761Z,12.6
2018-10-19T18:22:30.923Z,9.7
2018-10-19T18:38:03.649Z,10.2
2018-10-19T18:52:44.871Z,8.7
2018-10-19T19:07:38.256Z,11.7
2018-10-19T19:22:15.566Z,9.7
2018-10-19T19:37:54.895Z,6.4
2018-10-19T19:52:37.673Z,8.2
2018-10-19T20:08:15.412Z,6.7
2018-10-19T20:23:04.460Z,7.2
2018-10-19T20:37:35.199Z,6.9
2018-10-19T20:52:54.141Z,8.7
2018-10-19T21:07:22.237Z,8.9
2018-10-19T21:22:55.523Z,6.9
2018-10-19T21:37:27.740Z,6.8
2018-10-19T21:53:13.516Z,5.9
2018-10-19T22:07:26.535Z,5.6
2018-10-19T22:23:12.330Z,7.3
2018-10-19T22:37:37.507Z,4.5
2018-10-19T22:53:10.574Z,3.5
2018-10-19T23:07:50.820Z,5
2018-10-19T23:23:20.947Z,5.8
2018-10-19T23:37:32.049Z,3.7
2018-10-19T23:52:56.366Z,4.2
